createdAt,value
2022-08-02T00:00:35.359Z,4.93
2022-08-02T00:03:03.446Z,4.07
2022-08-02T00:05:31.568Z,8.13
2022-08-02T00:07:59.775Z,3.58
2022-08-02T00:10:28.462Z,4.72
2022-08-02T00:12:58.890Z,3.25
2022-08-02T00:15:28.487Z,3.42
2022-08-02T00:17:56.544Z,3.55
2022-08-02T00:20:24.550Z,3.35
2022-08-02T00:22:52.566Z,5.07
2022-08-02T00:25:20.582Z,4.22
2022-08-02T00:27:48.539Z,3.72
2022-08-02T00:30:16.573Z,3.00
2022-08-02T00:32:45.926Z,3.22
2022-08-02T00:35:13.986Z,4.53
2022-08-02T00:37:42.735Z,3.65
2022-08-02T00:40:12.240Z,3.92
2022-08-02T00:42:40.596Z,3.00
2022-08-02T00:45:09.610Z,3.40
2022-08-02T00:47:37.725Z,2.90
2022-08-02T00:50:07.953Z,3.42
2022-08-02T00:52:35.944Z,3.10
2022-08-02T00:55:04.084Z,3.13
2022-08-02T00:57:32.133Z,3.35
2022-08-02T01:00:00.162Z,4.68
2022-08-02T01:02:28.222Z,2.73
2022-08-02T01:04:56.129Z,2.70
2022-08-02T01:07:25.715Z,3.08
2022-08-02T01:09:53.905Z,3.70
2022-08-02T01:12:21.949Z,2.83
2022-08-02T01:14:52.634Z,2.60
2022-08-02T01:17:29.551Z,3.63
2022-08-02T01:20:09.649Z,2.90
2022-08-02T01:23:01.463Z,3.50
2022-08-02T01:25:43.469Z,3.00
2022-08-02T01:28:34.048Z,2.85
2022-08-02T01:31:09.082Z,3.25
2022-08-02T01:33:43.333Z,3.83
2022-08-02T01:36:15.128Z,3.47
2022-08-02T01:38:47.426Z,3.40
2022-08-02T01:41:20.028Z,4.33
2022-08-02T01:43:52.587Z,4.45
2022-08-02T01:46:22.667Z,3.03
2022-08-02T01:48:54.508Z,3.90
2022-08-02T01:51:44.034Z,3.40
2022-08-02T01:54:16.621Z,2.93
2022-08-02T01:56:46.522Z,4.97
2022-08-02T01:59:20.232Z,3.27
2022-08-02T02:01:50.801Z,3.33
2022-08-02T02:04:20.804Z,3.30
2022-08-02T02:06:50.282Z,2.60
2022-08-02T02:09:19.108Z,2.77
2022-08-02T02:12:11.592Z,2.42
2022-08-02T02:14:40.579Z,4.90
2022-08-02T02:18:11.267Z,2.73
2022-08-02T02:20:01.374Z,2.60
2022-08-02T02:22:29.539Z,3.60
2022-08-02T02:24:57.587Z,2.90
2022-08-02T02:27:26.577Z,2.50
2022-08-02T02:29:57.493Z,3.00
2022-08-02T02:32:28.495Z,2.83
2022-08-02T02:34:59.087Z,2.70
2022-08-02T02:37:29.147Z,2.70
2022-08-02T02:39:58.165Z,2.80
2022-08-02T02:42:29.915Z,2.57
2022-08-02T02:45:01.109Z,2.50
2022-08-02T02:47:40.424Z,2.60
2022-08-02T02:50:10.882Z,2.60
2022-08-02T02:52:40.763Z,2.47
2022-08-02T02:55:11.153Z,2.60
2022-08-02T02:57:40.050Z,2.43
2022-08-02T03:00:11.968Z,4.57
2022-08-02T03:02:42.232Z,3.40
2022-08-02T03:05:12.929Z,2.47
2022-08-02T03:07:41.220Z,2.57
2022-08-02T03:10:10.689Z,2.60
2022-08-02T03:12:39.142Z,3.07
2022-08-02T03:15:13.941Z,2.60
2022-08-02T03:17:43.485Z,3.00
2022-08-02T03:20:14.063Z,2.97
2022-08-02T03:22:42.762Z,2.67
2022-08-02T03:25:11.642Z,2.57
2022-08-02T03:27:40.016Z,2.77
2022-08-02T03:30:11.921Z,3.73
2022-08-02T03:32:41.998Z,2.27
2022-08-02T03:35:12.602Z,3.67
2022-08-02T03:37:41.578Z,3.93
2022-08-02T03:40:12.075Z,4.00
2022-08-02T03:42:41.449Z,2.93
2022-08-02T03:45:14.212Z,3.23
2022-08-02T03:47:43.600Z,2.80
2022-08-02T03:50:14.103Z,3.33
2022-08-02T03:52:43.574Z,4.23
2022-08-02T03:55:13.616Z,3.60
2022-08-02T03:57:43.046Z,5.20
2022-08-02T04:00:18.553Z,3.73
2022-08-02T04:02:46.617Z,4.40
2022-08-02T04:05:14.746Z,2.57
2022-08-02T04:08:02.467Z,3.93
2022-08-02T04:10:31.621Z,4.60
2022-08-02T04:13:00.070Z,2.60
2022-08-02T04:15:29.470Z,3.47
2022-08-02T04:18:02.902Z,3.20
2022-08-02T04:20:36.079Z,5.10
2022-08-02T04:23:07.678Z,2.70
2022-08-02T04:25:40.073Z,3.97
2022-08-02T04:28:16.732Z,2.57
2022-08-02T04:30:48.186Z,2.83
2022-08-02T04:33:16.516Z,3.93
2022-08-02T04:35:45.458Z,2.50
2022-08-02T04:38:14.621Z,3.70
2022-08-02T04:40:50.805Z,3.30
2022-08-02T04:43:18.894Z,6.63
2022-08-02T04:45:49.534Z,4.23
2022-08-02T04:48:17.545Z,2.50
2022-08-02T04:50:45.510Z,3.70
2022-08-02T04:53:13.631Z,3.30
2022-08-02T04:55:41.702Z,3.37
2022-08-02T04:58:36.946Z,2.83
2022-08-02T05:00:59.151Z,4.93
2022-08-02T05:03:27.269Z,4.73
2022-08-02T05:05:55.409Z,6.70
2022-08-02T05:08:23.385Z,3.07
2022-08-02T05:10:51.458Z,7.50
2022-08-02T05:13:19.481Z,6.17
2022-08-02T05:15:49.733Z,3.93
2022-08-02T05:18:19.233Z,2.53
2022-08-02T05:20:47.251Z,3.33
2022-08-02T05:23:15.334Z,4.93
2022-08-02T05:25:43.554Z,2.53
2022-08-02T05:28:11.955Z,2.43
2022-08-02T05:30:40.511Z,4.67
2022-08-02T05:33:09.145Z,4.47
2022-08-02T05:35:38.498Z,4.20
2022-08-02T05:38:10.161Z,5.13
2022-08-02T05:40:54.253Z,5.37
2022-08-02T05:43:24.147Z,2.83
2022-08-02T05:45:53.659Z,3.87
2022-08-02T05:48:25.334Z,3.63
2022-08-02T05:51:03.861Z,6.30
2022-08-02T05:53:39.952Z,4.40
2022-08-02T05:56:18.556Z,4.17
2022-08-02T05:58:52.184Z,5.93
2022-08-02T06:01:28.215Z,5.20
2022-08-02T06:04:01.256Z,3.60
2022-08-02T06:06:33.523Z,3.63
2022-08-02T06:09:04.090Z,3.10
2022-08-02T06:11:37.288Z,2.80
2022-08-02T06:14:07.122Z,4.17
2022-08-02T06:16:37.615Z,2.83
2022-08-02T06:19:12.657Z,8.00
2022-08-02T06:22:33.663Z,4.07
2022-08-02T06:24:33.818Z,5.50
2022-08-02T06:27:03.441Z,6.83
2022-08-02T06:29:38.699Z,6.13
2022-08-02T06:32:08.810Z,8.30
2022-08-02T06:34:38.284Z,9.37
2022-08-02T06:37:16.156Z,3.73
2022-08-02T06:39:46.597Z,3.20
2022-08-02T06:42:27.201Z,3.00
2022-08-02T06:44:58.034Z,4.03
2022-08-02T06:47:26.985Z,4.00
2022-08-02T06:49:56.292Z,1.70
2022-08-02T06:52:29.679Z,3.85
2022-08-02T06:54:59.787Z,9.10
2022-08-02T06:57:27.989Z,4.03
2022-08-02T06:59:56.089Z,3.30
2022-08-02T07:02:24.462Z,6.10
2022-08-02T07:04:52.538Z,7.20
2022-08-02T07:07:20.594Z,4.47
2022-08-02T07:09:56.733Z,3.38
2022-08-02T07:12:30.985Z,4.50
2022-08-02T07:14:59.308Z,8.02
2022-08-02T07:17:27.373Z,2.27
2022-08-02T07:19:55.506Z,3.30
2022-08-02T07:22:24.559Z,5.90
2022-08-02T07:24:54.973Z,2.30
2022-08-02T07:27:23.162Z,2.80
2022-08-02T07:29:51.563Z,4.82
2022-08-02T07:32:21.059Z,3.42
2022-08-02T07:34:51.240Z,2.53
2022-08-02T07:37:35.694Z,3.50
2022-08-02T07:40:15.241Z,7.07
2022-08-02T07:42:49.772Z,4.77
2022-08-02T07:45:17.715Z,7.63
2022-08-02T07:47:46.570Z,3.97
2022-08-02T07:50:17.206Z,2.70
2022-08-02T07:52:46.134Z,2.45
2022-08-02T07:55:17.856Z,2.67
2022-08-02T07:57:47.132Z,2.90
2022-08-02T08:00:17.375Z,5.85
2022-08-02T08:02:46.192Z,1.85
2022-08-02T08:05:14.979Z,4.33
2022-08-02T08:07:43.044Z,4.13
2022-08-02T08:10:11.656Z,3.93
2022-08-02T08:12:41.057Z,3.55
2022-08-02T08:15:10.231Z,4.70
2022-08-02T08:17:38.702Z,3.47
2022-08-02T08:20:07.926Z,1.90
2022-08-02T08:22:35.994Z,3.25
2022-08-02T08:25:04.215Z,4.40
2022-08-02T08:27:32.287Z,4.18
2022-08-02T08:30:01.698Z,2.10
2022-08-02T08:32:29.733Z,3.80
2022-08-02T08:34:57.745Z,3.63
2022-08-02T08:37:25.734Z,1.88
2022-08-02T08:39:58.100Z,3.58
2022-08-02T08:42:27.290Z,3.15
2022-08-02T08:44:57.438Z,5.32
2022-08-02T08:47:34.792Z,2.17
2022-08-02T08:50:05.515Z,2.33
2022-08-02T08:52:37.509Z,2.83
2022-08-02T08:55:06.669Z,4.10
2022-08-02T08:57:36.634Z,2.75
2022-08-02T09:00:05.769Z,4.50
2022-08-02T09:02:36.057Z,4.43
2022-08-02T09:05:04.279Z,3.13
2022-08-02T09:07:32.298Z,7.28
2022-08-02T09:10:00.361Z,2.25
2022-08-02T09:12:28.383Z,2.95
2022-08-02T09:14:56.368Z,3.28
2022-08-02T09:17:24.337Z,1.73
2022-08-02T09:20:08.425Z,4.05
2022-08-02T09:22:36.518Z,2.65
2022-08-02T09:25:04.831Z,3.10
2022-08-02T09:27:38.201Z,4.22
2022-08-02T09:30:15.482Z,3.83
2022-08-02T09:32:47.885Z,1.77
2022-08-02T09:36:07.116Z,3.58
2022-08-02T09:38:21.056Z,2.90
2022-08-02T09:40:49.052Z,1.75
2022-08-02T09:43:17.560Z,2.25
2022-08-02T09:45:45.724Z,3.40
2022-08-02T09:48:14.004Z,3.63
2022-08-02T09:50:45.560Z,1.95
2022-08-02T09:53:14.427Z,1.90
2022-08-02T09:55:43.973Z,4.15
2022-08-02T09:58:19.353Z,2.22
2022-08-02T10:00:55.386Z,3.65
2022-08-02T10:03:29.062Z,4.00
2022-08-02T10:06:05.312Z,4.93
2022-08-02T10:08:34.227Z,2.35
2022-08-02T10:11:03.520Z,2.63
2022-08-02T10:13:32.989Z,1.92
2022-08-02T10:16:02.437Z,3.30
2022-08-02T10:18:39.928Z,2.05
2022-08-02T10:21:15.095Z,1.90
2022-08-02T10:23:46.165Z,1.63
2022-08-02T10:26:17.503Z,3.90
2022-08-02T10:28:48.415Z,3.10
2022-08-02T10:31:20.270Z,2.08
2022-08-02T10:33:50.802Z,2.20
2022-08-02T10:36:20.917Z,3.75
2022-08-02T10:38:48.965Z,4.25
2022-08-02T10:41:37.025Z,5.50
2022-08-02T10:44:05.837Z,5.35
2022-08-02T10:46:35.740Z,1.38
2022-08-02T10:52:06.961Z,2.28
2022-08-02T10:54:37.197Z,2.22
2022-08-02T10:57:15.946Z,3.25
2022-08-02T10:59:44.687Z,3.47
2022-08-02T11:02:14.058Z,2.15
2022-08-02T11:05:06.253Z,3.25
2022-08-02T11:07:38.630Z,5.72
2022-08-02T11:10:29.309Z,3.40
2022-08-02T11:13:02.265Z,3.67
2022-08-02T11:15:30.544Z,4.20
2022-08-02T11:17:59.966Z,2.38
2022-08-02T11:20:28.916Z,2.30
2022-08-02T11:23:45.130Z,1.20
2022-08-02T11:26:46.276Z,2.63
2022-08-02T11:29:15.940Z,5.47
2022-08-02T11:31:45.733Z,4.03
2022-08-02T11:34:37.010Z,3.92
2022-08-02T11:37:03.010Z,2.70
2022-08-02T11:39:32.443Z,2.78
2022-08-02T11:42:01.805Z,4.55
2022-08-02T11:44:31.209Z,2.42
2022-08-02T11:47:00.457Z,1.02
2022-08-02T11:49:29.278Z,1.77
2022-08-02T11:52:01.066Z,1.85
2022-08-02T11:54:33.051Z,1.20
2022-08-02T11:57:19.266Z,2.45
2022-08-02T11:59:51.389Z,2.53
2022-08-02T12:02:20.934Z,5.03
2022-08-02T12:04:58.407Z,2.05
2022-08-02T12:07:34.788Z,2.97
2022-08-02T12:10:07.712Z,1.45
2022-08-02T12:12:47.929Z,1.73
2022-08-02T12:15:17.334Z,1.58
2022-08-02T12:18:05.824Z,5.00
2022-08-02T12:20:37.743Z,1.98
2022-08-02T12:23:06.181Z,2.00
2022-08-02T12:25:35.923Z,1.63
2022-08-02T12:28:25.679Z,1.27
2022-08-02T12:30:55.641Z,1.33
2022-08-02T12:33:25.072Z,1.63
2022-08-02T12:35:53.399Z,0.88
2022-08-02T12:38:21.677Z,4.55
2022-08-02T12:40:52.215Z,2.20
2022-08-02T12:43:22.259Z,2.40
2022-08-02T12:45:53.086Z,1.40
2022-08-02T12:48:37.728Z,3.92
2022-08-02T12:51:20.545Z,1.30
2022-08-02T12:53:48.609Z,3.00
2022-08-02T12:56:31.322Z,2.55
2022-08-02T12:58:59.457Z,4.50
2022-08-02T13:01:29.888Z,3.22
2022-08-02T13:04:11.188Z,2.60
2022-08-02T13:06:45.546Z,1.65
2022-08-02T13:09:16.066Z,1.55
2022-08-02T13:11:45.895Z,1.52
2022-08-02T13:14:14.566Z,1.08
2022-08-02T13:16:43.994Z,2.72
2022-08-02T13:19:13.152Z,3.13
2022-08-02T13:22:00.867Z,1.85
2022-08-02T13:24:38.446Z,2.33
2022-08-02T13:27:11.744Z,1.83
2022-08-02T13:29:40.083Z,1.35
2022-08-02T13:32:08.191Z,2.47
2022-08-02T13:34:36.518Z,1.13
2022-08-02T13:37:04.974Z,3.63
2022-08-02T13:39:32.919Z,4.70
2022-08-02T13:42:00.931Z,1.42
2022-08-02T13:44:30.354Z,1.25
2022-08-02T13:46:58.493Z,1.40
2022-08-02T13:49:50.992Z,7.63
2022-08-02T13:52:15.209Z,1.50
2022-08-02T13:54:43.589Z,1.13
2022-08-02T13:57:11.582Z,1.27
2022-08-02T13:59:57.051Z,1.75
2022-08-02T14:02:28.256Z,1.95
2022-08-02T14:04:56.872Z,3.40
2022-08-02T14:07:24.936Z,3.63
2022-08-02T14:09:53.119Z,1.77
2022-08-02T14:12:21.160Z,2.03
2022-08-02T14:14:51.102Z,2.42
2022-08-02T14:17:19.797Z,3.60
2022-08-02T14:19:47.816Z,2.88
2022-08-02T14:22:15.875Z,3.33
2022-08-02T14:24:44.479Z,1.92
2022-08-02T14:27:12.686Z,1.38
2022-08-02T14:29:40.789Z,4.18
2022-08-02T14:32:10.925Z,2.35
2022-08-02T14:34:39.324Z,4.93
2022-08-02T14:37:07.292Z,2.78
2022-08-02T14:39:42.852Z,2.00
2022-08-02T14:42:23.432Z,1.63
2022-08-02T14:44:51.772Z,1.13
2022-08-02T14:47:21.224Z,1.10
2022-08-02T14:49:50.574Z,1.80
2022-08-02T14:52:19.024Z,2.53
2022-08-02T14:54:47.479Z,1.00
2022-08-02T14:57:16.119Z,3.60
2022-08-02T14:59:44.080Z,4.82
2022-08-02T15:02:13.400Z,1.85
2022-08-02T15:04:44.005Z,1.45
2022-08-02T15:07:13.694Z,1.08
2022-08-02T15:09:42.310Z,1.70
2022-08-02T15:12:11.968Z,1.33
2022-08-02T15:14:40.986Z,2.13
2022-08-02T15:17:09.608Z,1.60
2022-08-02T15:19:57.790Z,1.10
2022-08-02T15:22:27.125Z,1.65
2022-08-02T15:24:57.522Z,4.57
2022-08-02T15:27:25.541Z,1.83
2022-08-02T15:29:59.905Z,1.85
2022-08-02T15:32:28.390Z,1.40
2022-08-02T15:34:56.408Z,2.40
2022-08-02T15:37:24.426Z,4.43
2022-08-02T15:39:54.908Z,1.42
2022-08-02T15:42:30.560Z,0.85
2022-08-02T15:44:59.495Z,1.65
2022-08-02T15:47:27.610Z,0.73
2022-08-02T15:49:55.795Z,1.25
2022-08-02T15:52:26.735Z,1.95
2022-08-02T15:54:56.234Z,0.98
2022-08-02T15:57:24.622Z,4.22
2022-08-02T15:59:53.298Z,2.58
2022-08-02T16:02:21.679Z,3.03
2022-08-02T16:04:50.403Z,0.95
2022-08-02T16:07:18.442Z,0.75
2022-08-02T16:09:46.506Z,1.83
2022-08-02T16:12:16.246Z,2.25
2022-08-02T16:14:45.423Z,2.00
2022-08-02T16:17:13.489Z,3.30
2022-08-02T16:19:48.186Z,1.83
2022-08-02T16:22:17.562Z,2.35
2022-08-02T16:24:45.650Z,2.65
2022-08-02T16:27:15.182Z,1.92
2022-08-02T16:29:43.262Z,4.70
2022-08-02T16:32:12.519Z,1.23
2022-08-02T16:35:06.947Z,2.53
2022-08-02T16:37:28.873Z,2.40
2022-08-02T16:40:16.889Z,2.10
2022-08-02T16:42:50.247Z,2.90
2022-08-02T16:45:20.134Z,3.97
2022-08-02T16:47:55.903Z,3.50
2022-08-02T16:50:28.563Z,0.98
2022-08-02T16:52:58.033Z,5.93
2022-08-02T16:55:30.316Z,1.80
2022-08-02T16:58:00.566Z,0.93
2022-08-02T17:00:29.639Z,3.58
2022-08-02T17:02:59.413Z,3.25
2022-08-02T17:05:37.486Z,0.70
2022-08-02T17:08:17.000Z,6.72
2022-08-02T17:10:45.809Z,1.33
2022-08-02T17:13:15.428Z,2.35
2022-08-02T17:16:08.695Z,1.65
2022-08-02T17:18:33.920Z,8.45
2022-08-02T17:21:04.216Z,1.10
2022-08-02T17:24:05.791Z,3.13
2022-08-02T17:26:20.545Z,2.47
2022-08-02T17:29:16.042Z,1.50
2022-08-02T17:31:44.333Z,4.38
2022-08-02T17:34:26.919Z,1.95
2022-08-02T17:36:56.628Z,2.63
2022-08-02T17:39:24.615Z,2.53
2022-08-02T17:42:02.835Z,1.40
2022-08-02T17:44:37.024Z,2.78
2022-08-02T17:47:08.473Z,1.80
2022-08-02T17:49:44.165Z,1.52
2022-08-02T17:55:04.304Z,1.05
2022-08-02T17:57:57.260Z,4.43
2022-08-02T18:00:22.439Z,1.83
2022-08-02T18:02:55.058Z,2.90
2022-08-02T18:05:38.874Z,1.63
2022-08-02T18:08:08.637Z,1.98
2022-08-02T18:10:37.029Z,4.50
2022-08-02T18:13:05.395Z,1.20
2022-08-02T18:15:34.948Z,1.35
2022-08-02T18:18:03.340Z,2.08
2022-08-02T18:20:31.356Z,4.35
2022-08-02T18:22:59.333Z,3.55
2022-08-02T18:25:37.252Z,4.20
2022-08-02T18:28:12.684Z,5.38
2022-08-02T18:30:42.104Z,8.50
2022-08-02T18:33:59.212Z,6.63
2022-08-02T18:35:58.234Z,7.07
2022-08-02T18:38:28.343Z,12.85
2022-08-02T18:40:58.753Z,11.73
2022-08-02T18:43:29.478Z,9.68
2022-08-02T18:46:06.845Z,15.45
2022-08-02T18:48:46.233Z,10.02
2022-08-02T18:51:15.273Z,14.68
2022-08-02T18:53:44.089Z,16.08
2022-08-02T18:56:19.940Z,11.65
2022-08-02T18:58:53.033Z,18.75
2022-08-02T19:01:31.799Z,14.38
2022-08-02T19:04:02.706Z,17.15
2022-08-02T19:06:30.993Z,23.88
2022-08-02T19:09:05.928Z,16.27
2022-08-02T19:11:41.043Z,22.65
2022-08-02T19:14:09.328Z,25.25
2022-08-02T19:16:38.700Z,20.80
2022-08-02T19:19:07.188Z,19.38
2022-08-02T19:22:15.775Z,22.58
2022-08-02T19:24:23.494Z,24.05
2022-08-02T19:26:52.689Z,15.50
2022-08-02T19:29:42.064Z,16.90
2022-08-02T19:32:39.755Z,16.02
2022-08-02T19:35:01.053Z,18.70
2022-08-02T19:37:37.064Z,17.95
2022-08-02T19:40:07.899Z,13.65
2022-08-02T19:43:05.295Z,19.40
2022-08-02T19:45:49.035Z,22.70
2022-08-02T19:48:15.649Z,36.40
2022-08-02T19:50:44.296Z,24.83
2022-08-02T19:53:18.123Z,24.05
2022-08-02T19:56:01.138Z,27.88
2022-08-02T19:58:32.392Z,19.30
2022-08-02T20:01:01.295Z,23.73
2022-08-02T20:03:51.418Z,24.35
2022-08-02T20:06:19.055Z,14.77
2022-08-02T20:08:53.446Z,24.55
2022-08-02T20:11:25.524Z,17.88
2022-08-02T20:13:54.938Z,24.90
2022-08-02T20:16:27.888Z,19.27
2022-08-02T20:18:58.034Z,14.80
2022-08-02T20:21:34.346Z,17.05
2022-08-02T20:24:06.342Z,18.08
2022-08-02T20:26:35.404Z,18.60
2022-08-02T20:29:04.482Z,22.83
2022-08-02T20:31:32.550Z,16.83
2022-08-02T20:34:02.022Z,26.60
2022-08-02T20:36:30.154Z,24.95
2022-08-02T20:38:58.241Z,19.05
2022-08-02T20:41:37.288Z,29.73
2022-08-02T20:44:15.527Z,25.55
2022-08-02T20:46:59.133Z,18.95
2022-08-02T20:49:41.366Z,14.35
2022-08-02T20:52:24.088Z,13.90
2022-08-02T20:54:53.126Z,16.40
2022-08-02T20:57:48.822Z,18.10
2022-08-02T21:00:11.607Z,17.42
2022-08-02T21:02:39.658Z,15.50
2022-08-02T21:05:17.155Z,16.42
2022-08-02T21:07:47.771Z,15.20
2022-08-02T21:10:23.899Z,13.65
2022-08-02T21:12:52.307Z,15.57
2022-08-02T21:15:20.768Z,16.05
2022-08-02T21:17:57.644Z,11.80
2022-08-02T21:20:32.259Z,13.43
2022-08-02T21:23:00.413Z,13.30
2022-08-02T21:25:50.573Z,10.07
2022-08-02T21:28:17.712Z,13.70
2022-08-02T21:30:46.353Z,13.02
2022-08-02T21:33:23.110Z,11.02
2022-08-02T21:35:53.195Z,11.70
2022-08-02T21:38:35.911Z,15.82
2022-08-02T21:41:06.921Z,8.55
2022-08-02T21:43:40.402Z,11.35
2022-08-02T21:46:14.572Z,12.18
2022-08-02T21:48:43.166Z,8.38
2022-08-02T21:51:16.020Z,7.05
2022-08-02T21:54:17.698Z,7.68
2022-08-02T21:56:32.479Z,6.40
2022-08-02T21:59:01.689Z,11.85
2022-08-02T22:01:52.677Z,5.00
2022-08-02T22:04:22.017Z,9.38
2022-08-02T22:06:51.589Z,8.50
2022-08-02T22:09:44.175Z,6.03
2022-08-02T22:12:10.073Z,6.20
2022-08-02T22:14:41.196Z,6.15
2022-08-02T22:19:57.867Z,6.80
2022-08-02T22:22:28.151Z,6.38
2022-08-02T22:24:57.251Z,7.93
2022-08-02T22:28:34.989Z,8.32
2022-08-02T22:30:14.033Z,5.40
2022-08-02T22:33:15.533Z,5.50
2022-08-02T22:35:43.735Z,6.03
2022-08-02T22:38:17.079Z,7.18
2022-08-02T22:40:46.625Z,7.10
2022-08-02T22:43:22.634Z,6.72
2022-08-02T22:45:51.673Z,5.20
2022-08-02T22:48:20.445Z,5.37
2022-08-02T22:50:48.762Z,6.17
2022-08-02T22:53:24.677Z,7.43
2022-08-02T22:56:04.449Z,5.27
2022-08-02T22:58:32.834Z,7.40
2022-08-02T22:58:41.050Z,3.72
2022-08-02T22:59:04.484Z,6.45
2022-08-02T23:01:01.046Z,6.53
2022-08-02T23:03:29.683Z,4.13
2022-08-02T23:05:58.019Z,5.40
2022-08-02T23:08:27.527Z,5.70
2022-08-02T23:10:55.615Z,6.07
2022-08-02T23:13:28.211Z,4.53
2022-08-02T23:16:14.412Z,4.23
2022-08-02T23:19:14.278Z,4.37
2022-08-02T23:21:46.256Z,5.30
2022-08-02T23:24:33.196Z,4.70
2022-08-02T23:27:01.692Z,4.60
2022-08-02T23:29:29.665Z,5.57
2022-08-02T23:31:57.883Z,4.47
2022-08-02T23:34:27.315Z,7.03
2022-08-02T23:36:55.309Z,4.60
2022-08-02T23:39:23.527Z,5.13
2022-08-02T23:41:55.009Z,7.50
2022-08-02T23:44:23.961Z,3.50
2022-08-02T23:46:52.433Z,5.07
2022-08-02T23:49:20.889Z,6.17
2022-08-02T23:51:49.575Z,6.70
2022-08-02T23:54:17.948Z,4.60
2022-08-02T23:56:46.091Z,6.37
2022-08-02T23:59:15.578Z,4.97
